sensor_id;sensor_type;location;lat;lon;timestamp;P1;durP1;ratioP1;P2;durP2;ratioP2
25984;SDS011;66753;53.848;10.658;2023-03-01T00:04:36;6.03;;;3.00;;
25984;SDS011;66753;53.848;10.658;2023-03-01T00:09:37;7.63;;;3.27;;
25984;SDS011;66753;53.848;10.658;2023-03-01T00:14:37;7.35;;;3.88;;
25984;SDS011;66753;53.848;10.658;2023-03-01T00:19:38;8.10;;;3.40;;
25984;SDS011;66753;53.848;10.658;2023-03-01T00:24:38;8.37;;;3.63;;
25984;SDS011;66753;53.848;10.658;2023-03-01T00:29:38;6.77;;;3.93;;
25984;SDS011;66753;53.848;10.658;2023-03-01T00:34:39;6.00;;;3.20;;
25984;SDS011;66753;53.848;10.658;2023-03-01T00:39:39;5.80;;;3.50;;
25984;SDS011;66753;53.848;10.658;2023-03-01T00:44:40;5.90;;;3.50;;
25984;SDS011;66753;53.848;10.658;2023-03-01T00:49:40;6.87;;;3.53;;
25984;SDS011;66753;53.848;10.658;2023-03-01T00:54:41;10.05;;;3.42;;
25984;SDS011;66753;53.848;10.658;2023-03-01T00:59:41;7.33;;;4.20;;
25984;SDS011;66753;53.848;10.658;2023-03-01T01:04:42;6.97;;;3.67;;
25984;SDS011;66753;53.848;10.658;2023-03-01T01:09:42;8.70;;;4.15;;
25984;SDS011;66753;53.848;10.658;2023-03-01T01:14:43;8.98;;;3.85;;
25984;SDS011;66753;53.848;10.658;2023-03-01T01:19:43;9.13;;;3.53;;
25984;SDS011;66753;53.848;10.658;2023-03-01T01:24:44;7.57;;;3.97;;
25984;SDS011;66753;53.848;10.658;2023-03-01T01:29:44;7.63;;;3.60;;
25984;SDS011;66753;53.848;10.658;2023-03-01T01:34:45;5.40;;;3.07;;
25984;SDS011;66753;53.848;10.658;2023-03-01T01:39:46;6.10;;;3.38;;
25984;SDS011;66753;53.848;10.658;2023-03-01T01:44:47;9.53;;;3.37;;
25984;SDS011;66753;53.848;10.658;2023-03-01T01:55:02;5.50;;;3.25;;
25984;SDS011;66753;53.848;10.658;2023-03-01T02:00:11;5.95;;;3.78;;
25984;SDS011;66753;53.848;10.658;2023-03-01T02:05:17;9.30;;;3.50;;
25984;SDS011;66753;53.848;10.658;2023-03-01T02:10:26;6.93;;;2.95;;
25984;SDS011;66753;53.848;10.658;2023-03-01T02:15:31;7.07;;;5.20;;
25984;SDS011;66753;53.848;10.658;2023-03-01T02:31:33;10.63;;;5.55;;
25984;SDS011;66753;53.848;10.658;2023-03-01T02:36:44;7.65;;;4.53;;
25984;SDS011;66753;53.848;10.658;2023-03-01T02:41:51;6.10;;;3.78;;
25984;SDS011;66753;53.848;10.658;2023-03-01T02:46:55;11.02;;;7.25;;
25984;SDS011;66753;53.848;10.658;2023-03-01T02:57:05;7.53;;;4.22;;
25984;SDS011;66753;53.848;10.658;2023-03-01T03:02:07;4.90;;;3.20;;
25984;SDS011;66753;53.848;10.658;2023-03-01T03:07:08;6.15;;;3.00;;
25984;SDS011;66753;53.848;10.658;2023-03-01T03:12:08;9.43;;;4.13;;
25984;SDS011;66753;53.848;10.658;2023-03-01T03:17:09;7.43;;;3.40;;
25984;SDS011;66753;53.848;10.658;2023-03-01T03:22:09;7.30;;;3.93;;
25984;SDS011;66753;53.848;10.658;2023-03-01T03:27:09;6.77;;;3.80;;
25984;SDS011;66753;53.848;10.658;2023-03-01T03:32:10;7.00;;;3.90;;
25984;SDS011;66753;53.848;10.658;2023-03-01T03:37:10;9.50;;;3.27;;
25984;SDS011;66753;53.848;10.658;2023-03-01T03:42:31;7.25;;;3.15;;
25984;SDS011;66753;53.848;10.658;2023-03-01T03:47:31;4.87;;;3.20;;
25984;SDS011;66753;53.848;10.658;2023-03-01T03:52:31;7.07;;;2.93;;
25984;SDS011;66753;53.848;10.658;2023-03-01T03:57:32;5.43;;;2.83;;
25984;SDS011;66753;53.848;10.658;2023-03-01T04:02:32;8.30;;;3.20;;
25984;SDS011;66753;53.848;10.658;2023-03-01T04:07:33;6.50;;;3.13;;
25984;SDS011;66753;53.848;10.658;2023-03-01T04:12:34;6.47;;;3.03;;
25984;SDS011;66753;53.848;10.658;2023-03-01T04:17:35;7.37;;;3.73;;
25984;SDS011;66753;53.848;10.658;2023-03-01T04:22:36;6.10;;;2.95;;
25984;SDS011;66753;53.848;10.658;2023-03-01T04:27:37;6.22;;;3.08;;
25984;SDS011;66753;53.848;10.658;2023-03-01T04:32:38;7.03;;;3.40;;
25984;SDS011;66753;53.848;10.658;2023-03-01T04:37:38;8.53;;;4.37;;
25984;SDS011;66753;53.848;10.658;2023-03-01T04:42:39;10.10;;;3.47;;
25984;SDS011;66753;53.848;10.658;2023-03-01T04:47:40;10.73;;;4.28;;
25984;SDS011;66753;53.848;10.658;2023-03-01T04:52:43;9.88;;;4.28;;
25984;SDS011;66753;53.848;10.658;2023-03-01T04:57:44;13.25;;;4.88;;
25984;SDS011;66753;53.848;10.658;2023-03-01T05:02:49;13.13;;;5.25;;
25984;SDS011;66753;53.848;10.658;2023-03-01T05:07:53;13.85;;;6.45;;
25984;SDS011;66753;53.848;10.658;2023-03-01T05:12:55;14.38;;;6.20;;
25984;SDS011;66753;53.848;10.658;2023-03-01T05:17:59;36.15;;;7.32;;
25984;SDS011;66753;53.848;10.658;2023-03-01T05:23:00;21.90;;;6.97;;
25984;SDS011;66753;53.848;10.658;2023-03-01T05:28:05;20.90;;;6.90;;
25984;SDS011;66753;53.848;10.658;2023-03-01T05:33:11;24.92;;;7.47;;
25984;SDS011;66753;53.848;10.658;2023-03-01T05:38:15;30.23;;;7.07;;
25984;SDS011;66753;53.848;10.658;2023-03-01T05:43:16;19.60;;;6.88;;
25984;SDS011;66753;53.848;10.658;2023-03-01T05:48:18;39.90;;;7.55;;
25984;SDS011;66753;53.848;10.658;2023-03-01T05:53:19;22.77;;;6.63;;
25984;SDS011;66753;53.848;10.658;2023-03-01T06:03:24;34.03;;;5.70;;
25984;SDS011;66753;53.848;10.658;2023-03-01T06:08:24;19.17;;;6.63;;
25984;SDS011;66753;53.848;10.658;2023-03-01T06:13:27;51.08;;;7.88;;
25984;SDS011;66753;53.848;10.658;2023-03-01T06:18:27;50.67;;;8.00;;
25984;SDS011;66753;53.848;10.658;2023-03-01T06:23:27;30.67;;;7.47;;
25984;SDS011;66753;53.848;10.658;2023-03-01T06:28:28;36.55;;;7.43;;
25984;SDS011;66753;53.848;10.658;2023-03-01T06:33:28;16.83;;;6.47;;
25984;SDS011;66753;53.848;10.658;2023-03-01T06:38:29;32.07;;;11.47;;
25984;SDS011;66753;53.848;10.658;2023-03-01T06:43:29;28.30;;;9.97;;
25984;SDS011;66753;53.848;10.658;2023-03-01T06:48:30;23.52;;;9.20;;
25984;SDS011;66753;53.848;10.658;2023-03-01T06:53:30;21.97;;;7.80;;
25984;SDS011;66753;53.848;10.658;2023-03-01T06:58:31;25.13;;;8.43;;
25984;SDS011;66753;53.848;10.658;2023-03-01T07:03:31;16.98;;;7.53;;
25984;SDS011;66753;53.848;10.658;2023-03-01T07:08:32;16.65;;;7.43;;
25984;SDS011;66753;53.848;10.658;2023-03-01T07:13:32;20.57;;;7.57;;
25984;SDS011;66753;53.848;10.658;2023-03-01T07:18:32;36.07;;;8.60;;
25984;SDS011;66753;53.848;10.658;2023-03-01T07:23:33;14.93;;;6.35;;
25984;SDS011;66753;53.848;10.658;2023-03-01T07:28:34;37.92;;;8.88;;
25984;SDS011;66753;53.848;10.658;2023-03-01T07:33:36;36.67;;;8.73;;
25984;SDS011;66753;53.848;10.658;2023-03-01T07:38:36;21.07;;;8.47;;
25984;SDS011;66753;53.848;10.658;2023-03-01T07:43:36;18.43;;;8.67;;
25984;SDS011;66753;53.848;10.658;2023-03-01T07:48:37;22.85;;;9.85;;
25984;SDS011;66753;53.848;10.658;2023-03-01T07:53:37;18.10;;;7.67;;
25984;SDS011;66753;53.848;10.658;2023-03-01T07:58:38;27.37;;;8.13;;
25984;SDS011;66753;53.848;10.658;2023-03-01T08:03:43;19.77;;;8.52;;
25984;SDS011;66753;53.848;10.658;2023-03-01T08:08:44;21.23;;;8.52;;
25984;SDS011;66753;53.848;10.658;2023-03-01T08:13:46;18.33;;;8.60;;
25984;SDS011;66753;53.848;10.658;2023-03-01T08:18:48;25.85;;;8.02;;
25984;SDS011;66753;53.848;10.658;2023-03-01T08:23:48;21.67;;;8.77;;
25984;SDS011;66753;53.848;10.658;2023-03-01T08:28:49;17.70;;;7.47;;
25984;SDS011;66753;53.848;10.658;2023-03-01T08:33:51;25.48;;;7.30;;
25984;SDS011;66753;53.848;10.658;2023-03-01T08:38:55;16.50;;;6.50;;
25984;SDS011;66753;53.848;10.658;2023-03-01T08:43:56;17.38;;;6.15;;
25984;SDS011;66753;53.848;10.658;2023-03-01T08:48:58;21.23;;;5.72;;
25984;SDS011;66753;53.848;10.658;2023-03-01T08:53:59;18.23;;;6.95;;
25984;SDS011;66753;53.848;10.658;2023-03-01T08:58:59;18.30;;;7.00;;
25984;SDS011;66753;53.848;10.658;2023-03-01T09:04:00;17.97;;;6.67;;
25984;SDS011;66753;53.848;10.658;2023-03-01T09:09:01;14.03;;;6.87;;
25984;SDS011;66753;53.848;10.658;2023-03-01T09:14:04;20.48;;;7.53;;
25984;SDS011;66753;53.848;10.658;2023-03-01T09:24:07;16.20;;;5.50;;
25984;SDS011;66753;53.848;10.658;2023-03-01T09:29:14;15.48;;;6.10;;
25984;SDS011;66753;53.848;10.658;2023-03-01T09:34:15;13.00;;;5.82;;
25984;SDS011;66753;53.848;10.658;2023-03-01T09:39:19;13.68;;;5.53;;
25984;SDS011;66753;53.848;10.658;2023-03-01T09:44:26;15.85;;;6.30;;
25984;SDS011;66753;53.848;10.658;2023-03-01T09:49:33;11.50;;;4.95;;
25984;SDS011;66753;53.848;10.658;2023-03-01T09:54:35;12.13;;;5.18;;
25984;SDS011;66753;53.848;10.658;2023-03-01T09:59:38;10.07;;;5.03;;
25984;SDS011;66753;53.848;10.658;2023-03-01T10:04:51;10.95;;;4.72;;
25984;SDS011;66753;53.848;10.658;2023-03-01T10:09:55;10.88;;;4.97;;
25984;SDS011;66753;53.848;10.658;2023-03-01T10:30:42;9.75;;;4.13;;
25984;SDS011;66753;53.848;10.658;2023-03-01T10:35:44;9.23;;;3.67;;
25984;SDS011;66753;53.848;10.658;2023-03-01T10:40:55;7.03;;;3.45;;
25984;SDS011;66753;53.848;10.658;2023-03-01T10:46:01;9.02;;;3.55;;
25984;SDS011;66753;53.848;10.658;2023-03-01T10:56:09;8.03;;;3.90;;
25984;SDS011;66753;53.848;10.658;2023-03-01T11:06:20;6.40;;;3.53;;
25984;SDS011;66753;53.848;10.658;2023-03-01T11:11:34;7.05;;;3.90;;
25984;SDS011;66753;53.848;10.658;2023-03-01T11:16:36;6.90;;;3.20;;
25984;SDS011;66753;53.848;10.658;2023-03-01T11:27:01;6.18;;;2.85;;
25984;SDS011;66753;53.848;10.658;2023-03-01T11:32:06;6.35;;;3.00;;
25984;SDS011;66753;53.848;10.658;2023-03-01T11:37:12;6.80;;;3.00;;
25984;SDS011;66753;53.848;10.658;2023-03-01T11:47:40;14.98;;;8.95;;
25984;SDS011;66753;53.848;10.658;2023-03-01T12:15:11;6.32;;;2.67;;
25984;SDS011;66753;53.848;10.658;2023-03-01T12:20:40;5.88;;;2.90;;
25984;SDS011;66753;53.848;10.658;2023-03-01T12:25:56;7.15;;;3.72;;
25984;SDS011;66753;53.848;10.658;2023-03-01T12:42:26;13.73;;;6.10;;
25984;SDS011;66753;53.848;10.658;2023-03-01T12:47:42;13.23;;;5.85;;
25984;SDS011;66753;53.848;10.658;2023-03-01T12:52:56;16.80;;;7.30;;
25984;SDS011;66753;53.848;10.658;2023-03-01T12:58:15;6.35;;;3.42;;
25984;SDS011;66753;53.848;10.658;2023-03-01T13:19:25;7.82;;;3.60;;
25984;SDS011;66753;53.848;10.658;2023-03-01T13:24:37;7.07;;;3.63;;
25984;SDS011;66753;53.848;10.658;2023-03-01T13:29:55;6.68;;;3.38;;
25984;SDS011;66753;53.848;10.658;2023-03-01T13:35:00;8.35;;;3.50;;
25984;SDS011;66753;53.848;10.658;2023-03-01T13:40:05;6.43;;;3.42;;
25984;SDS011;66753;53.848;10.658;2023-03-01T13:45:42;7.82;;;3.88;;
25984;SDS011;66753;53.848;10.658;2023-03-01T13:50:48;8.38;;;3.35;;
25984;SDS011;66753;53.848;10.658;2023-03-01T13:55:55;7.63;;;3.78;;
25984;SDS011;66753;53.848;10.658;2023-03-01T14:00:59;9.00;;;4.40;;
25984;SDS011;66753;53.848;10.658;2023-03-01T14:06:03;7.03;;;3.80;;
25984;SDS011;66753;53.848;10.658;2023-03-01T14:22:02;5.95;;;3.13;;
25984;SDS011;66753;53.848;10.658;2023-03-01T14:27:12;6.05;;;3.53;;
25984;SDS011;66753;53.848;10.658;2023-03-01T14:32:24;7.32;;;3.63;;
25984;SDS011;66753;53.848;10.658;2023-03-01T14:42:31;7.75;;;3.90;;
25984;SDS011;66753;53.848;10.658;2023-03-01T14:47:35;7.30;;;3.97;;
25984;SDS011;66753;53.848;10.658;2023-03-01T14:52:39;8.98;;;4.30;;
25984;SDS011;66753;53.848;10.658;2023-03-01T14:57:47;9.60;;;5.78;;
25984;SDS011;66753;53.848;10.658;2023-03-01T15:02:48;9.35;;;4.97;;
25984;SDS011;66753;53.848;10.658;2023-03-01T15:07:51;8.95;;;4.88;;
25984;SDS011;66753;53.848;10.658;2023-03-01T15:12:52;10.40;;;4.97;;
25984;SDS011;66753;53.848;10.658;2023-03-01T15:17:54;9.30;;;5.03;;
25984;SDS011;66753;53.848;10.658;2023-03-01T15:22:56;9.60;;;5.00;;
25984;SDS011;66753;53.848;10.658;2023-03-01T15:27:58;9.82;;;5.47;;
25984;SDS011;66753;53.848;10.658;2023-03-01T15:33:16;9.10;;;5.03;;
25984;SDS011;66753;53.848;10.658;2023-03-01T15:48:38;8.82;;;4.65;;
25984;SDS011;66753;53.848;10.658;2023-03-01T15:53:39;10.20;;;5.23;;
25984;SDS011;66753;53.848;10.658;2023-03-01T15:58:39;14.90;;;6.97;;
25984;SDS011;66753;53.848;10.658;2023-03-01T16:03:40;9.83;;;5.23;;
25984;SDS011;66753;53.848;10.658;2023-03-01T16:08:40;8.95;;;4.43;;
25984;SDS011;66753;53.848;10.658;2023-03-01T16:13:41;9.77;;;4.72;;
25984;SDS011;66753;53.848;10.658;2023-03-01T16:18:43;10.38;;;5.30;;
25984;SDS011;66753;53.848;10.658;2023-03-01T16:23:44;11.35;;;6.15;;
25984;SDS011;66753;53.848;10.658;2023-03-01T16:28:45;12.75;;;5.53;;
25984;SDS011;66753;53.848;10.658;2023-03-01T16:33:46;11.15;;;5.22;;
25984;SDS011;66753;53.848;10.658;2023-03-01T16:38:50;10.10;;;5.35;;
25984;SDS011;66753;53.848;10.658;2023-03-01T16:43:51;9.93;;;4.97;;
25984;SDS011;66753;53.848;10.658;2023-03-01T16:48:52;9.17;;;4.93;;
25984;SDS011;66753;53.848;10.658;2023-03-01T16:53:53;11.73;;;5.38;;
25984;SDS011;66753;53.848;10.658;2023-03-01T16:58:53;8.30;;;4.70;;
25984;SDS011;66753;53.848;10.658;2023-03-01T17:03:53;9.83;;;4.67;;
25984;SDS011;66753;53.848;10.658;2023-03-01T17:08:54;9.37;;;4.30;;
25984;SDS011;66753;53.848;10.658;2023-03-01T17:13:54;12.77;;;5.97;;
25984;SDS011;66753;53.848;10.658;2023-03-01T17:18:55;11.80;;;5.80;;
25984;SDS011;66753;53.848;10.658;2023-03-01T17:23:56;10.57;;;5.18;;
25984;SDS011;66753;53.848;10.658;2023-03-01T17:28:57;12.63;;;5.95;;
25984;SDS011;66753;53.848;10.658;2023-03-01T17:33:58;11.15;;;5.00;;
25984;SDS011;66753;53.848;10.658;2023-03-01T17:38:58;10.25;;;5.30;;
25984;SDS011;66753;53.848;10.658;2023-03-01T17:43:59;11.07;;;5.23;;
25984;SDS011;66753;53.848;10.658;2023-03-01T17:48:59;12.33;;;5.20;;
25984;SDS011;66753;53.848;10.658;2023-03-01T17:54:00;10.63;;;5.73;;
25984;SDS011;66753;53.848;10.658;2023-03-01T17:59:00;10.03;;;5.63;;
25984;SDS011;66753;53.848;10.658;2023-03-01T18:04:00;12.03;;;6.30;;
25984;SDS011;66753;53.848;10.658;2023-03-01T18:09:03;11.13;;;5.40;;
25984;SDS011;66753;53.848;10.658;2023-03-01T18:14:03;13.20;;;6.25;;
25984;SDS011;66753;53.848;10.658;2023-03-01T18:19:04;16.63;;;7.43;;
25984;SDS011;66753;53.848;10.658;2023-03-01T18:24:04;15.18;;;6.55;;
25984;SDS011;66753;53.848;10.658;2023-03-01T18:29:05;14.43;;;5.80;;
25984;SDS011;66753;53.848;10.658;2023-03-01T18:34:08;15.35;;;6.55;;
25984;SDS011;66753;53.848;10.658;2023-03-01T18:39:10;15.48;;;6.45;;
25984;SDS011;66753;53.848;10.658;2023-03-01T18:44:11;13.17;;;5.93;;
25984;SDS011;66753;53.848;10.658;2023-03-01T18:49:12;19.87;;;7.33;;
25984;SDS011;66753;53.848;10.658;2023-03-01T18:54:13;15.73;;;6.45;;
25984;SDS011;66753;53.848;10.658;2023-03-01T18:59:13;15.77;;;6.27;;
25984;SDS011;66753;53.848;10.658;2023-03-01T19:04:14;14.43;;;6.27;;
25984;SDS011;66753;53.848;10.658;2023-03-01T19:09:14;16.98;;;6.18;;
25984;SDS011;66753;53.848;10.658;2023-03-01T19:14:15;18.87;;;6.97;;
25984;SDS011;66753;53.848;10.658;2023-03-01T19:19:15;17.40;;;7.20;;
25984;SDS011;66753;53.848;10.658;2023-03-01T19:24:15;17.53;;;6.37;;
25984;SDS011;66753;53.848;10.658;2023-03-01T19:29:16;15.97;;;6.53;;
25984;SDS011;66753;53.848;10.658;2023-03-01T19:34:16;19.17;;;7.07;;
25984;SDS011;66753;53.848;10.658;2023-03-01T19:39:17;17.95;;;6.72;;
25984;SDS011;66753;53.848;10.658;2023-03-01T19:44:17;18.85;;;6.78;;
25984;SDS011;66753;53.848;10.658;2023-03-01T19:49:19;20.40;;;7.35;;
25984;SDS011;66753;53.848;10.658;2023-03-01T19:54:20;18.90;;;7.22;;
25984;SDS011;66753;53.848;10.658;2023-03-01T19:59:21;57.72;;;8.43;;
25984;SDS011;66753;53.848;10.658;2023-03-01T20:04:23;28.13;;;7.35;;
25984;SDS011;66753;53.848;10.658;2023-03-01T20:09:24;28.23;;;6.43;;
25984;SDS011;66753;53.848;10.658;2023-03-01T20:14:24;29.40;;;7.23;;
25984;SDS011;66753;53.848;10.658;2023-03-01T20:19:24;35.70;;;6.33;;
25984;SDS011;66753;53.848;10.658;2023-03-01T20:24:25;27.17;;;6.30;;
25984;SDS011;66753;53.848;10.658;2023-03-01T20:29:25;57.65;;;10.63;;
25984;SDS011;66753;53.848;10.658;2023-03-01T20:34:26;22.80;;;6.93;;
25984;SDS011;66753;53.848;10.658;2023-03-01T20:39:26;25.93;;;5.80;;
25984;SDS011;66753;53.848;10.658;2023-03-01T20:44:27;28.30;;;7.70;;
25984;SDS011;66753;53.848;10.658;2023-03-01T20:49:27;24.80;;;7.18;;
25984;SDS011;66753;53.848;10.658;2023-03-01T20:54:28;18.67;;;6.43;;
25984;SDS011;66753;53.848;10.658;2023-03-01T20:59:28;19.80;;;6.77;;
25984;SDS011;66753;53.848;10.658;2023-03-01T21:04:29;23.10;;;6.83;;
25984;SDS011;66753;53.848;10.658;2023-03-01T21:09:30;15.18;;;6.05;;
25984;SDS011;66753;53.848;10.658;2023-03-01T21:14:30;22.03;;;6.00;;
25984;SDS011;66753;53.848;10.658;2023-03-01T21:19:42;17.45;;;6.03;;
25984;SDS011;66753;53.848;10.658;2023-03-01T21:24:43;27.67;;;6.32;;
25984;SDS011;66753;53.848;10.658;2023-03-01T21:29:44;23.65;;;6.30;;
25984;SDS011;66753;53.848;10.658;2023-03-01T21:34:45;13.77;;;4.85;;
25984;SDS011;66753;53.848;10.658;2023-03-01T21:39:46;11.75;;;4.65;;
25984;SDS011;66753;53.848;10.658;2023-03-01T21:44:46;19.93;;;5.43;;
25984;SDS011;66753;53.848;10.658;2023-03-01T21:49:47;11.77;;;4.95;;
25984;SDS011;66753;53.848;10.658;2023-03-01T21:54:49;21.50;;;5.40;;
25984;SDS011;66753;53.848;10.658;2023-03-01T21:59:50;21.88;;;4.85;;
25984;SDS011;66753;53.848;10.658;2023-03-01T22:04:51;13.27;;;4.87;;
25984;SDS011;66753;53.848;10.658;2023-03-01T22:09:56;20.02;;;4.80;;
25984;SDS011;66753;53.848;10.658;2023-03-01T22:14:56;16.03;;;5.00;;
25984;SDS011;66753;53.848;10.658;2023-03-01T22:19:57;12.53;;;5.63;;
25984;SDS011;66753;53.848;10.658;2023-03-01T22:24:57;12.82;;;4.55;;
25984;SDS011;66753;53.848;10.658;2023-03-01T22:29:58;14.07;;;4.70;;
25984;SDS011;66753;53.848;10.658;2023-03-01T22:34:58;26.17;;;5.50;;
25984;SDS011;66753;53.848;10.658;2023-03-01T22:39:59;11.10;;;4.60;;
25984;SDS011;66753;53.848;10.658;2023-03-01T22:44:59;15.07;;;5.20;;
25984;SDS011;66753;53.848;10.658;2023-03-01T22:50:00;15.57;;;5.47;;
25984;SDS011;66753;53.848;10.658;2023-03-01T22:55:00;15.10;;;4.77;;
25984;SDS011;66753;53.848;10.658;2023-03-01T23:00:01;16.47;;;4.80;;
25984;SDS011;66753;53.848;10.658;2023-03-01T23:05:08;12.02;;;4.28;;
25984;SDS011;66753;53.848;10.658;2023-03-01T23:10:09;12.07;;;5.13;;
25984;SDS011;66753;53.848;10.658;2023-03-01T23:15:11;10.80;;;4.18;;
25984;SDS011;66753;53.848;10.658;2023-03-01T23:20:11;10.23;;;4.38;;
25984;SDS011;66753;53.848;10.658;2023-03-01T23:25:13;15.20;;;5.32;;
25984;SDS011;66753;53.848;10.658;2023-03-01T23:30:14;18.25;;;5.03;;
25984;SDS011;66753;53.848;10.658;2023-03-01T23:35:14;10.85;;;4.72;;
25984;SDS011;66753;53.848;10.658;2023-03-01T23:40:15;13.30;;;5.22;;
25984;SDS011;66753;53.848;10.658;2023-03-01T23:45:16;17.45;;;4.97;;
25984;SDS011;66753;53.848;10.658;2023-03-01T23:50:16;33.58;;;6.15;;
25984;SDS011;66753;53.848;10.658;2023-03-01T23:55:17;16.15;;;4.75;;
